createdAt,value
2018-06-21T00:02:24.416Z,63.87
2018-06-21T00:04:52.660Z,62.15
2018-06-21T00:07:20.877Z,63.07
2018-06-21T00:09:49.112Z,62.39
2018-06-21T00:12:17.329Z,63.00
2018-06-21T00:14:45.553Z,63.29
2018-06-21T00:17:13.785Z,63.14
2018-06-21T00:19:42.009Z,62.37
2018-06-21T00:22:10.250Z,62.81
2018-06-21T00:24:38.449Z,63.03
2018-06-21T00:27:06.773Z,61.60
2018-06-21T00:29:35.037Z,62.57
2018-06-21T00:32:03.280Z,62.06
2018-06-21T00:34:31.528Z,62.33
2018-06-21T00:36:59.773Z,62.18
2018-06-21T00:39:28.017Z,62.69
2018-06-21T00:41:56.241Z,61.51
2018-06-21T00:44:24.475Z,63.38
2018-06-21T00:46:52.708Z,63.10
2018-06-21T00:49:20.945Z,64.29
2018-06-21T00:51:49.168Z,64.28
2018-06-21T00:54:17.440Z,63.78
2018-06-21T00:56:45.657Z,63.42
2018-06-21T00:59:13.893Z,63.41
2018-06-21T01:01:42.086Z,63.44
2018-06-21T01:04:10.343Z,63.81
2018-06-21T01:06:38.584Z,64.61
2018-06-21T01:09:07.295Z,65.01
2018-06-21T01:11:35.529Z,65.02
2018-06-21T01:14:03.892Z,63.96
2018-06-21T01:16:32.154Z,65.39
2018-06-21T01:19:00.433Z,65.35
2018-06-21T01:21:28.688Z,65.63
2018-06-21T01:23:56.929Z,65.53
2018-06-21T01:26:25.145Z,65.80
2018-06-21T01:28:53.401Z,66.11
2018-06-21T01:31:21.711Z,65.67
2018-06-21T01:33:49.948Z,66.09
2018-06-21T01:36:18.160Z,66.30
2018-06-21T01:38:46.385Z,65.91
2018-06-21T01:41:14.601Z,66.15
2018-06-21T01:43:42.837Z,66.13
2018-06-21T01:46:11.133Z,66.10
2018-06-21T01:48:39.414Z,65.36
2018-06-21T01:51:07.641Z,66.28
2018-06-21T01:53:35.892Z,66.30
2018-06-21T01:56:04.137Z,65.60
2018-06-21T01:58:32.357Z,65.79
2018-06-21T02:01:00.604Z,66.21
2018-06-21T02:03:28.853Z,64.95
2018-06-21T02:05:57.049Z,64.83
2018-06-21T02:08:25.365Z,65.00
2018-06-21T02:10:53.626Z,65.79
2018-06-21T02:13:21.848Z,66.37
2018-06-21T02:15:50.053Z,66.00
2018-06-21T02:18:18.264Z,65.90
2018-06-21T02:20:46.481Z,66.88
2018-06-21T02:23:14.693Z,66.86
2018-06-21T02:25:42.936Z,67.79
2018-06-21T02:28:11.153Z,66.77
2018-06-21T02:30:39.378Z,66.94
2018-06-21T02:33:07.612Z,67.20
2018-06-21T02:35:35.856Z,67.35
2018-06-21T02:38:04.101Z,67.36
2018-06-21T02:40:32.314Z,67.08
2018-06-21T02:43:00.545Z,66.47
2018-06-21T02:45:28.783Z,66.34
2018-06-21T02:47:56.998Z,65.84
2018-06-21T02:50:25.245Z,66.98
2018-06-21T02:52:53.525Z,66.11
2018-06-21T02:55:21.758Z,66.17
2018-06-21T02:57:49.992Z,66.83
2018-06-21T03:00:18.301Z,66.73
2018-06-21T03:02:46.881Z,66.42
2018-06-21T03:05:15.113Z,67.39
2018-06-21T03:07:43.337Z,67.09
2018-06-21T03:10:11.628Z,67.15
2018-06-21T03:12:39.865Z,67.20
2018-06-21T03:15:08.333Z,66.74
2018-06-21T03:17:36.590Z,66.83
2018-06-21T03:20:04.806Z,66.67
2018-06-21T03:22:33.038Z,67.75
2018-06-21T03:25:01.297Z,67.00
2018-06-21T03:27:29.518Z,67.07
2018-06-21T03:29:57.765Z,67.43
2018-06-21T03:32:25.996Z,66.70
2018-06-21T03:34:54.220Z,67.12
2018-06-21T03:37:22.433Z,67.50
2018-06-21T03:39:50.681Z,67.10
2018-06-21T03:42:18.941Z,67.26
2018-06-21T03:44:47.177Z,67.81
2018-06-21T03:47:15.388Z,67.23
2018-06-21T03:49:43.664Z,66.56
2018-06-21T03:52:11.909Z,67.04
2018-06-21T03:54:40.112Z,66.96
2018-06-21T03:57:08.344Z,66.76
2018-06-21T03:59:36.561Z,66.66
2018-06-21T04:02:04.892Z,66.82
2018-06-21T04:04:33.112Z,66.54
2018-06-21T04:07:01.332Z,66.28
2018-06-21T04:09:29.557Z,67.50
2018-06-21T04:11:57.789Z,67.53
2018-06-21T04:14:26.117Z,66.78
2018-06-21T04:16:54.369Z,66.52
2018-06-21T04:19:22.632Z,67.48
2018-06-21T04:21:50.881Z,66.58
2018-06-21T04:24:19.096Z,66.11
2018-06-21T04:26:47.453Z,66.06
2018-06-21T04:29:16.025Z,67.08
2018-06-21T04:31:44.312Z,66.47
2018-06-21T04:34:12.529Z,66.61
2018-06-21T04:36:40.741Z,66.20
2018-06-21T04:39:09.640Z,67.87
2018-06-21T04:41:38.878Z,66.23
2018-06-21T04:44:07.153Z,67.22
2018-06-21T04:46:35.819Z,67.77
2018-06-21T04:49:04.081Z,68.12
2018-06-21T04:51:32.308Z,67.36
2018-06-21T04:54:00.521Z,67.17
2018-06-21T04:56:28.760Z,67.49
2018-06-21T04:58:57.016Z,68.15
2018-06-21T05:01:25.225Z,67.39
2018-06-21T05:03:53.468Z,68.34
2018-06-21T05:06:21.689Z,68.42
2018-06-21T05:08:49.909Z,68.40
2018-06-21T05:11:18.186Z,68.42
2018-06-21T05:13:46.405Z,69.09
2018-06-21T05:16:14.648Z,68.39
2018-06-21T05:18:42.885Z,69.20
2018-06-21T05:21:11.129Z,68.30
2018-06-21T05:23:39.404Z,70.00
2018-06-21T05:26:07.633Z,70.12
2018-06-21T05:28:35.904Z,71.00
2018-06-21T05:31:04.169Z,70.99
2018-06-21T05:33:32.591Z,70.31
2018-06-21T05:36:00.836Z,71.50
2018-06-21T05:38:29.053Z,71.59
2018-06-21T05:40:57.500Z,71.34
2018-06-21T05:43:25.745Z,71.40
2018-06-21T05:45:53.952Z,71.60
2018-06-21T05:48:22.268Z,72.33
2018-06-21T05:50:50.564Z,71.93
2018-06-21T05:53:18.865Z,72.46
2018-06-21T05:55:47.099Z,72.72
2018-06-21T05:58:15.369Z,72.65
2018-06-21T06:00:43.685Z,73.47
2018-06-21T06:03:11.969Z,74.60
2018-06-21T06:05:40.189Z,74.30
2018-06-21T06:08:08.401Z,74.58
2018-06-21T06:10:36.614Z,73.89
2018-06-21T06:13:04.876Z,74.73
2018-06-21T06:15:33.109Z,74.68
2018-06-21T06:18:01.305Z,73.92
2018-06-21T06:20:29.620Z,76.39
2018-06-21T06:22:57.888Z,77.60
2018-06-21T06:25:26.201Z,78.39
2018-06-21T06:27:54.529Z,78.23
2018-06-21T06:30:22.773Z,78.36
2018-06-21T06:32:51.076Z,79.36
2018-06-21T06:35:19.296Z,80.19
2018-06-21T06:37:47.560Z,80.17
2018-06-21T06:40:15.805Z,80.00
2018-06-21T06:42:44.104Z,79.87
2018-06-21T06:45:12.438Z,79.02
2018-06-21T06:47:40.657Z,80.03
2018-06-21T06:50:08.896Z,79.94
2018-06-21T06:52:37.132Z,79.79
2018-06-21T06:55:05.553Z,80.62
2018-06-21T06:57:33.816Z,79.68
2018-06-21T07:00:02.061Z,79.91
2018-06-21T07:02:30.297Z,79.37
2018-06-21T07:04:58.651Z,78.71
2018-06-21T07:07:26.862Z,78.12
2018-06-21T07:09:55.341Z,77.91
2018-06-21T07:12:23.573Z,78.04
2018-06-21T07:14:51.872Z,78.53
2018-06-21T07:17:20.172Z,77.68
2018-06-21T07:19:48.467Z,77.33
2018-06-21T07:22:16.657Z,76.57
2018-06-21T07:24:44.886Z,76.91
2018-06-21T07:27:13.142Z,75.71
2018-06-21T07:29:41.364Z,76.74
2018-06-21T07:32:09.651Z,76.41
2018-06-21T07:34:38.011Z,76.45
2018-06-21T07:37:06.224Z,76.01
2018-06-21T07:39:34.436Z,76.40
2018-06-21T07:42:02.706Z,75.14
2018-06-21T07:44:30.996Z,74.62
2018-06-21T07:46:59.302Z,75.32
2018-06-21T07:49:27.477Z,75.42
2018-06-21T07:51:55.745Z,74.40
2018-06-21T07:54:23.975Z,74.47
2018-06-21T07:56:52.194Z,73.66
2018-06-21T07:59:20.551Z,73.50
2018-06-21T08:01:48.773Z,72.66
2018-06-21T08:04:16.977Z,72.61
2018-06-21T08:06:45.205Z,72.48
2018-06-21T08:09:14.077Z,70.04
2018-06-21T08:11:42.497Z,70.27
2018-06-21T08:14:10.714Z,69.74
2018-06-21T08:16:40.217Z,69.34
2018-06-21T08:19:08.829Z,68.54
2018-06-21T08:21:37.213Z,68.69
2018-06-21T08:24:06.024Z,67.50
2018-06-21T08:26:34.252Z,66.50
2018-06-21T08:29:02.471Z,65.41
2018-06-21T08:31:30.710Z,64.82
2018-06-21T08:33:58.938Z,64.98
2018-06-21T08:36:27.189Z,64.15
2018-06-21T08:38:55.501Z,64.10
2018-06-21T08:41:24.069Z,65.02
2018-06-21T08:43:52.320Z,64.29
2018-06-21T08:46:20.528Z,64.47
2018-06-21T08:48:48.769Z,65.06
2018-06-21T08:51:17.000Z,64.95
2018-06-21T08:53:45.289Z,65.74
2018-06-21T08:56:13.500Z,65.30
2018-06-21T08:58:41.707Z,63.77
2018-06-21T09:01:09.938Z,62.24
2018-06-21T09:03:38.148Z,61.88
2018-06-21T09:06:06.420Z,62.70
2018-06-21T09:08:34.636Z,62.02
2018-06-21T09:11:02.861Z,59.33
2018-06-21T09:13:34.276Z,60.32
2018-06-21T09:16:03.312Z,60.92
2018-06-21T09:18:31.683Z,61.03
2018-06-21T09:20:59.978Z,62.11
2018-06-21T09:23:28.192Z,60.36
2018-06-21T09:25:56.423Z,60.06
2018-06-21T09:28:24.641Z,60.65
2018-06-21T09:30:52.870Z,57.73
2018-06-21T09:33:21.316Z,60.00
2018-06-21T09:35:49.510Z,59.19
2018-06-21T09:38:23.020Z,60.44
2018-06-21T09:40:56.520Z,61.05
2018-06-21T09:43:30.080Z,58.57
2018-06-21T09:46:03.532Z,57.39
2018-06-21T09:48:32.869Z,57.86
2018-06-21T09:51:01.628Z,55.76
2018-06-21T09:53:30.356Z,56.93
2018-06-21T09:55:59.758Z,57.70
2018-06-21T09:58:28.034Z,55.96
2018-06-21T10:01:02.789Z,55.13
2018-06-21T10:03:31.644Z,56.12
2018-06-21T10:05:59.861Z,53.43
2018-06-21T10:08:28.282Z,54.51
2018-06-21T10:10:56.518Z,55.89
2018-06-21T10:13:24.853Z,55.11
2018-06-21T10:15:53.430Z,53.61
2018-06-21T10:18:21.708Z,53.81
2018-06-21T10:20:50.332Z,54.07
2018-06-21T10:23:18.554Z,54.95
2018-06-21T10:25:46.832Z,54.71
2018-06-21T10:28:15.097Z,55.15
2018-06-21T10:30:43.441Z,54.24
2018-06-21T10:33:11.725Z,52.29
2018-06-21T10:35:39.944Z,53.12
2018-06-21T10:38:08.144Z,53.85
2018-06-21T10:40:36.396Z,53.18
2018-06-21T10:43:04.762Z,54.16
2018-06-21T10:45:33.084Z,51.98
2018-06-21T10:48:01.301Z,50.75
2018-06-21T10:50:29.561Z,51.90
2018-06-21T10:52:57.769Z,50.16
2018-06-21T10:55:25.987Z,50.42
2018-06-21T10:57:54.207Z,46.92
2018-06-21T11:00:22.482Z,48.18
2018-06-21T11:02:50.880Z,47.94
2018-06-21T11:05:19.167Z,47.29
2018-06-21T11:07:47.414Z,47.55
2018-06-21T11:10:15.665Z,47.32
2018-06-21T11:12:43.977Z,42.98
2018-06-21T11:15:12.204Z,42.58
2018-06-21T11:17:40.429Z,40.05
2018-06-21T11:20:08.669Z,40.91
2018-06-21T11:22:37.018Z,41.28
2018-06-21T11:25:05.301Z,41.14
2018-06-21T11:27:33.541Z,39.45
2018-06-21T11:30:01.785Z,39.46
2018-06-21T11:32:30.014Z,40.62
2018-06-21T11:34:58.262Z,38.50
2018-06-21T11:37:26.522Z,37.76
2018-06-21T11:39:54.753Z,39.70
2018-06-21T11:42:23.005Z,40.47
2018-06-21T11:44:51.300Z,36.16
2018-06-21T11:47:19.525Z,34.14
2018-06-21T11:49:47.730Z,34.78
2018-06-21T11:52:15.962Z,35.13
2018-06-21T11:54:44.197Z,35.35
2018-06-21T11:57:12.430Z,34.14
2018-06-21T11:59:40.641Z,35.29
2018-06-21T12:02:08.853Z,35.89
2018-06-21T12:04:37.080Z,35.59
2018-06-21T12:07:05.380Z,33.93
2018-06-21T12:09:33.600Z,33.62
2018-06-21T12:12:01.884Z,32.76
2018-06-21T12:14:30.204Z,32.53
2018-06-21T12:16:58.424Z,32.25
2018-06-21T12:19:26.629Z,33.33
2018-06-21T12:21:54.877Z,31.91
2018-06-21T12:24:23.175Z,32.89
2018-06-21T12:26:51.413Z,33.26
2018-06-21T12:29:19.633Z,35.48
2018-06-21T12:31:47.861Z,34.90
2018-06-21T12:34:16.120Z,37.52
2018-06-21T12:36:44.361Z,34.40
2018-06-21T12:39:12.585Z,31.86
2018-06-21T12:41:40.880Z,32.53
2018-06-21T12:44:09.158Z,32.55
2018-06-21T12:46:37.388Z,32.13
2018-06-21T12:49:05.658Z,32.25
2018-06-21T12:51:33.909Z,32.29
2018-06-21T12:54:02.141Z,32.14
2018-06-21T12:56:30.363Z,31.54
2018-06-21T12:58:58.592Z,31.49
2018-06-21T13:01:26.825Z,30.56
2018-06-21T13:03:55.128Z,31.82
2018-06-21T13:06:23.388Z,32.53
2018-06-21T13:09:02.925Z,30.88
2018-06-21T13:12:46.242Z,31.21
2018-06-21T13:15:14.429Z,31.35
2018-06-21T13:17:42.679Z,31.43
2018-06-21T13:20:10.897Z,31.74
2018-06-21T13:22:39.117Z,33.35
2018-06-21T13:25:07.392Z,32.73
2018-06-21T13:27:35.614Z,31.94
2018-06-21T13:30:07.391Z,31.38
2018-06-21T13:32:35.729Z,32.63
2018-06-21T13:35:04.037Z,33.82
2018-06-21T13:37:32.261Z,32.96
2018-06-21T13:40:00.520Z,31.34
2018-06-21T13:42:28.797Z,33.62
2018-06-21T13:44:57.084Z,31.67
2018-06-21T13:47:25.293Z,30.06
2018-06-21T13:49:53.520Z,30.07
2018-06-21T13:52:21.753Z,31.39
2018-06-21T13:54:49.977Z,31.34
2018-06-21T13:57:18.232Z,33.19
2018-06-21T13:59:46.553Z,33.93
2018-06-21T14:02:14.744Z,31.09
2018-06-21T14:04:42.973Z,31.07
2018-06-21T14:07:11.242Z,32.95
2018-06-21T14:09:39.464Z,32.08
2018-06-21T14:12:07.715Z,32.32
2018-06-21T14:14:35.946Z,32.20
2018-06-21T14:17:04.237Z,31.39
2018-06-21T14:19:32.487Z,30.48
2018-06-21T14:22:00.878Z,30.54
2018-06-21T14:24:29.457Z,32.13
2018-06-21T14:26:57.709Z,32.59
2018-06-21T14:29:26.204Z,31.20
2018-06-21T14:31:54.449Z,33.85
2018-06-21T14:34:22.808Z,33.02
2018-06-21T14:36:51.028Z,33.27
2018-06-21T14:39:19.261Z,32.58
2018-06-21T14:41:47.512Z,32.16
2018-06-21T14:44:15.792Z,30.67
2018-06-21T14:46:44.057Z,29.89
2018-06-21T14:49:12.265Z,30.66
2018-06-21T14:51:40.533Z,31.60
2018-06-21T14:54:08.836Z,32.41
2018-06-21T14:56:37.064Z,34.15
2018-06-21T14:59:05.332Z,33.57
2018-06-21T15:01:33.576Z,32.86
2018-06-21T15:04:01.849Z,34.58
2018-06-21T15:06:30.306Z,33.45
2018-06-21T15:08:58.790Z,33.42
2018-06-21T15:11:27.076Z,33.39
2018-06-21T15:13:55.303Z,34.01
2018-06-21T15:16:24.225Z,31.77
2018-06-21T15:18:52.476Z,32.18
2018-06-21T15:21:20.736Z,31.26
2018-06-21T15:23:49.037Z,32.31
2018-06-21T15:26:17.309Z,33.73
2018-06-21T15:28:45.560Z,34.58
2018-06-21T15:31:13.794Z,34.36
2018-06-21T15:33:42.085Z,33.69
2018-06-21T15:36:10.343Z,34.32
2018-06-21T15:38:38.589Z,31.96
2018-06-21T15:41:06.835Z,31.86
2018-06-21T15:43:35.108Z,33.19
2018-06-21T15:46:03.369Z,34.57
2018-06-21T15:48:31.640Z,33.42
2018-06-21T15:50:59.956Z,31.80
2018-06-21T15:53:28.403Z,32.37
2018-06-21T15:55:56.721Z,31.64
2018-06-21T15:58:24.996Z,32.72
2018-06-21T16:00:53.294Z,32.84
2018-06-21T16:03:21.641Z,32.46
2018-06-21T16:05:49.909Z,31.00
2018-06-21T16:08:18.149Z,31.36
2018-06-21T16:10:46.356Z,33.45
2018-06-21T16:13:15.978Z,33.97
2018-06-21T16:15:45.105Z,35.19
2018-06-21T16:18:13.388Z,34.56
2018-06-21T16:20:42.088Z,35.31
2018-06-21T16:23:10.605Z,34.42
2018-06-21T16:25:38.841Z,34.45
2018-06-21T16:28:07.297Z,35.49
2018-06-21T16:30:35.884Z,35.35
2018-06-21T16:33:04.289Z,35.13
2018-06-21T16:35:32.630Z,33.46
2018-06-21T16:38:00.867Z,33.60
2018-06-21T16:40:29.451Z,31.48
2018-06-21T16:42:58.352Z,31.02
2018-06-21T16:45:26.720Z,31.04
2018-06-21T16:47:54.969Z,29.97
2018-06-21T16:50:23.448Z,29.36
2018-06-21T16:52:51.690Z,30.62
2018-06-21T16:55:19.940Z,30.57
2018-06-21T16:57:48.146Z,29.60
2018-06-21T17:00:16.516Z,31.02
2018-06-21T17:02:44.789Z,30.28
2018-06-21T17:05:13.897Z,30.28
2018-06-21T17:07:42.222Z,30.34
2018-06-21T17:10:10.489Z,29.91
2018-06-21T17:12:38.933Z,31.61
2018-06-21T17:15:07.714Z,33.02
2018-06-21T17:17:36.411Z,33.98
2018-06-21T17:20:04.701Z,33.61
2018-06-21T17:22:32.930Z,34.49
2018-06-21T17:25:01.190Z,35.91
2018-06-21T17:27:29.425Z,35.37
2018-06-21T17:29:57.652Z,36.61
2018-06-21T17:32:25.927Z,38.43
2018-06-21T17:34:54.167Z,37.93
2018-06-21T17:37:22.454Z,38.47
2018-06-21T17:39:52.293Z,37.01
2018-06-21T17:42:20.622Z,37.94
2018-06-21T17:44:48.836Z,38.32
2018-06-21T17:47:17.091Z,38.88
2018-06-21T17:49:45.300Z,39.61
2018-06-21T17:52:13.565Z,40.48
2018-06-21T17:54:42.085Z,40.79
2018-06-21T17:57:10.353Z,41.58
2018-06-21T17:59:38.626Z,41.98
2018-06-21T18:02:06.879Z,42.25
2018-06-21T18:04:35.143Z,41.98
2018-06-21T18:07:03.373Z,42.29
2018-06-21T18:09:31.643Z,41.79
2018-06-21T18:11:59.937Z,42.06
2018-06-21T18:14:28.713Z,41.86
2018-06-21T18:16:57.015Z,42.19
2018-06-21T18:19:25.225Z,41.61
2018-06-21T18:21:53.516Z,42.34
2018-06-21T18:24:21.793Z,43.18
2018-06-21T18:26:50.061Z,42.24
2018-06-21T18:29:18.322Z,42.45
2018-06-21T18:31:46.551Z,44.74
2018-06-21T18:34:14.806Z,47.06
2018-06-21T18:36:43.049Z,46.76
2018-06-21T18:39:12.706Z,45.86
2018-06-21T18:41:41.605Z,45.61
2018-06-21T18:44:09.912Z,46.44
2018-06-21T18:46:38.248Z,48.93
2018-06-21T18:49:06.498Z,51.97
2018-06-21T18:51:34.926Z,50.92
2018-06-21T18:54:03.199Z,50.91
2018-06-21T18:56:31.484Z,49.81
2018-06-21T18:58:59.760Z,48.37
2018-06-21T19:01:28.049Z,49.11
2018-06-21T19:03:56.509Z,49.67
2018-06-21T19:06:30.084Z,48.60
2018-06-21T19:09:03.496Z,48.96
2018-06-21T19:11:37.105Z,47.93
2018-06-21T19:14:05.381Z,47.98
2018-06-21T19:16:33.749Z,47.61
2018-06-21T19:19:01.977Z,43.76
2018-06-21T19:21:30.254Z,45.09
2018-06-21T19:23:58.497Z,45.63
2018-06-21T19:26:26.759Z,45.57
2018-06-21T19:28:55.068Z,45.85
2018-06-21T19:31:23.297Z,45.29
2018-06-21T19:33:51.536Z,45.34
2018-06-21T19:36:20.157Z,44.20
2018-06-21T19:38:48.399Z,44.34
2018-06-21T19:41:16.677Z,45.02
2018-06-21T19:43:44.941Z,44.07
2018-06-21T19:46:13.196Z,43.80
2018-06-21T19:48:41.473Z,43.98
2018-06-21T19:51:09.705Z,45.22
2018-06-21T19:53:38.005Z,44.21
2018-06-21T19:56:06.297Z,44.91
2018-06-21T19:58:34.540Z,45.38
2018-06-21T20:01:02.801Z,45.05
2018-06-21T20:03:31.013Z,45.69
2018-06-21T20:05:59.261Z,45.04
2018-06-21T20:08:27.524Z,45.52
2018-06-21T20:11:00.913Z,47.18
2018-06-21T20:13:34.557Z,46.13
2018-06-21T20:16:02.846Z,47.17
2018-06-21T20:18:31.129Z,47.00
2018-06-21T20:20:59.337Z,47.61
2018-06-21T20:23:27.554Z,47.77
2018-06-21T20:25:55.795Z,48.17
2018-06-21T20:28:24.119Z,47.89
2018-06-21T20:30:52.356Z,48.45
2018-06-21T20:33:20.585Z,48.57
2018-06-21T20:35:48.813Z,48.06
2018-06-21T20:38:17.196Z,48.43
2018-06-21T20:40:45.381Z,48.64
2018-06-21T20:43:13.631Z,47.73
2018-06-21T20:45:41.933Z,47.87
2018-06-21T20:48:10.141Z,48.80
2018-06-21T20:50:38.356Z,49.21
2018-06-21T20:53:06.605Z,49.29
2018-06-21T20:55:34.849Z,49.73
2018-06-21T20:58:03.069Z,48.81
2018-06-21T21:00:31.295Z,49.68
2018-06-21T21:02:59.469Z,49.50
2018-06-21T21:05:28.593Z,50.33
2018-06-21T21:07:56.922Z,50.73
2018-06-21T21:10:25.097Z,50.96
2018-06-21T21:12:53.285Z,51.06
2018-06-21T21:15:21.466Z,50.17
2018-06-21T21:17:49.705Z,50.88
2018-06-21T21:20:17.880Z,50.46
2018-06-21T21:22:46.089Z,50.92
2018-06-21T21:25:14.389Z,50.61
2018-06-21T21:27:42.568Z,50.60
2018-06-21T21:30:10.939Z,51.86
2018-06-21T21:32:39.275Z,51.26
2018-06-21T21:35:07.515Z,50.40
2018-06-21T21:37:35.736Z,50.57
2018-06-21T21:40:05.332Z,51.28
2018-06-21T21:42:34.733Z,51.48
2018-06-21T21:45:03.039Z,51.43
2018-06-21T21:47:31.248Z,51.05
2018-06-21T21:49:59.465Z,51.88
2018-06-21T21:52:27.648Z,51.59
2018-06-21T21:54:55.835Z,50.94
2018-06-21T21:57:24.091Z,51.75
2018-06-21T21:59:52.281Z,51.79
2018-06-21T22:02:20.527Z,51.87
2018-06-21T22:04:48.776Z,51.17
2018-06-21T22:07:16.941Z,51.19
2018-06-21T22:09:45.605Z,51.42
2018-06-21T22:12:13.821Z,50.99
2018-06-21T22:14:42.141Z,51.96
2018-06-21T22:17:10.321Z,52.00
2018-06-21T22:19:38.532Z,51.28
2018-06-21T22:22:06.720Z,52.16
2018-06-21T22:24:34.997Z,51.22
2018-06-21T22:27:03.229Z,51.77
2018-06-21T22:29:31.397Z,51.22
2018-06-21T22:31:59.668Z,51.15
2018-06-21T22:34:27.840Z,51.09
2018-06-21T22:36:56.052Z,51.53
2018-06-21T22:39:24.272Z,52.26
2018-06-21T22:41:52.455Z,52.54
2018-06-21T22:44:20.651Z,52.91
2018-06-21T22:46:48.876Z,51.70
2018-06-21T22:49:17.092Z,52.63
2018-06-21T22:51:45.397Z,53.51
2018-06-21T22:54:13.612Z,52.99
2018-06-21T22:56:41.875Z,53.60
2018-06-21T22:59:10.089Z,53.35
2018-06-21T23:01:38.302Z,53.00
2018-06-21T23:04:06.506Z,53.07
2018-06-21T23:06:34.696Z,53.29
2018-06-21T23:09:02.921Z,53.68
2018-06-21T23:11:31.096Z,52.72
2018-06-21T23:13:59.300Z,53.74
2018-06-21T23:16:27.477Z,53.24
2018-06-21T23:19:07.037Z,52.90
2018-06-21T23:21:35.273Z,53.72
2018-06-21T23:24:03.477Z,52.97
2018-06-21T23:26:31.652Z,53.37
2018-06-21T23:28:59.861Z,52.99
2018-06-21T23:31:28.065Z,52.38
2018-06-21T23:33:56.305Z,53.03
2018-06-21T23:36:24.513Z,52.90
2018-06-21T23:38:52.720Z,53.44
2018-06-21T23:41:20.888Z,54.04
2018-06-21T23:43:49.157Z,54.41
2018-06-21T23:46:17.410Z,54.33
2018-06-21T23:48:45.613Z,55.17
2018-06-21T23:51:13.788Z,55.07
2018-06-21T23:53:42.021Z,55.92
2018-06-21T23:56:10.221Z,56.23
2018-06-21T23:58:38.420Z,55.79
